sensor_id;sensor_type;location;lat;lon;timestamp;P1;durP1;ratioP1;P2;durP2;ratioP2
16775;SDS011;8505;49.456;8.164;2023-04-23T00:02:18;3.70;;;2.65;;
16775;SDS011;8505;49.456;8.164;2023-04-23T00:04:49;4.50;;;2.83;;
16775;SDS011;8505;49.456;8.164;2023-04-23T00:07:19;3.60;;;2.70;;
16775;SDS011;8505;49.456;8.164;2023-04-23T00:09:48;3.80;;;2.50;;
16775;SDS011;8505;49.456;8.164;2023-04-23T00:12:19;3.80;;;2.60;;
16775;SDS011;8505;49.456;8.164;2023-04-23T00:14:47;4.55;;;2.60;;
16775;SDS011;8505;49.456;8.164;2023-04-23T00:17:15;3.33;;;2.53;;
16775;SDS011;8505;49.456;8.164;2023-04-23T00:19:44;4.05;;;2.53;;
16775;SDS011;8505;49.456;8.164;2023-04-23T00:22:12;4.43;;;2.47;;
16775;SDS011;8505;49.456;8.164;2023-04-23T00:24:43;3.33;;;2.20;;
16775;SDS011;8505;49.456;8.164;2023-04-23T00:27:10;3.53;;;2.20;;
16775;SDS011;8505;49.456;8.164;2023-04-23T00:32:33;3.33;;;2.10;;
16775;SDS011;8505;49.456;8.164;2023-04-23T00:35:03;3.33;;;2.10;;
16775;SDS011;8505;49.456;8.164;2023-04-23T00:37:31;2.20;;;1.70;;
16775;SDS011;8505;49.456;8.164;2023-04-23T00:39:59;2.33;;;1.83;;
16775;SDS011;8505;49.456;8.164;2023-04-23T00:42:27;2.72;;;1.90;;
16775;SDS011;8505;49.456;8.164;2023-04-23T00:44:55;2.15;;;1.90;;
16775;SDS011;8505;49.456;8.164;2023-04-23T00:47:23;2.22;;;1.67;;
16775;SDS011;8505;49.456;8.164;2023-04-23T00:49:51;3.42;;;1.80;;
16775;SDS011;8505;49.456;8.164;2023-04-23T00:52:22;1.92;;;1.70;;
16775;SDS011;8505;49.456;8.164;2023-04-23T00:54:49;2.25;;;1.80;;
16775;SDS011;8505;49.456;8.164;2023-04-23T00:57:17;1.90;;;1.70;;
16775;SDS011;8505;49.456;8.164;2023-04-23T00:59:45;2.07;;;1.87;;
16775;SDS011;8505;49.456;8.164;2023-04-23T01:02:13;3.00;;;2.00;;
16775;SDS011;8505;49.456;8.164;2023-04-23T01:04:41;3.08;;;1.80;;
16775;SDS011;8505;49.456;8.164;2023-04-23T01:07:10;2.40;;;1.83;;
16775;SDS011;8505;49.456;8.164;2023-04-23T01:09:40;2.45;;;1.80;;
16775;SDS011;8505;49.456;8.164;2023-04-23T01:12:07;3.60;;;2.17;;
16775;SDS011;8505;49.456;8.164;2023-04-23T01:14:36;2.80;;;1.92;;
16775;SDS011;8505;49.456;8.164;2023-04-23T01:17:04;2.58;;;2.13;;
16775;SDS011;8505;49.456;8.164;2023-04-23T01:19:33;3.50;;;2.00;;
16775;SDS011;8505;49.456;8.164;2023-04-23T01:22:01;2.80;;;2.00;;
16775;SDS011;8505;49.456;8.164;2023-04-23T01:24:31;2.63;;;2.08;;
16775;SDS011;8505;49.456;8.164;2023-04-23T01:26:59;2.50;;;2.00;;
16775;SDS011;8505;49.456;8.164;2023-04-23T01:29:26;2.95;;;2.10;;
16775;SDS011;8505;49.456;8.164;2023-04-23T01:31:56;3.60;;;2.25;;
16775;SDS011;8505;49.456;8.164;2023-04-23T01:34:25;2.30;;;2.05;;
16775;SDS011;8505;49.456;8.164;2023-04-23T01:36:53;2.70;;;2.10;;
16775;SDS011;8505;49.456;8.164;2023-04-23T01:39:21;3.03;;;1.90;;
16775;SDS011;8505;49.456;8.164;2023-04-23T01:41:50;2.40;;;2.00;;
16775;SDS011;8505;49.456;8.164;2023-04-23T01:44:19;3.00;;;2.17;;
16775;SDS011;8505;49.456;8.164;2023-04-23T01:46:46;3.03;;;2.30;;
16775;SDS011;8505;49.456;8.164;2023-04-23T01:49:14;4.10;;;2.40;;
16775;SDS011;8505;49.456;8.164;2023-04-23T01:51:42;3.83;;;2.35;;
16775;SDS011;8505;49.456;8.164;2023-04-23T01:54:10;3.28;;;2.50;;
16775;SDS011;8505;49.456;8.164;2023-04-23T01:56:37;3.42;;;2.60;;
16775;SDS011;8505;49.456;8.164;2023-04-23T01:59:06;3.58;;;2.58;;
16775;SDS011;8505;49.456;8.164;2023-04-23T02:01:41;3.30;;;2.43;;
16775;SDS011;8505;49.456;8.164;2023-04-23T02:04:11;3.95;;;2.40;;
16775;SDS011;8505;49.456;8.164;2023-04-23T02:06:40;3.72;;;2.50;;
16775;SDS011;8505;49.456;8.164;2023-04-23T02:09:10;3.60;;;2.50;;
16775;SDS011;8505;49.456;8.164;2023-04-23T02:11:38;3.13;;;2.33;;
16775;SDS011;8505;49.456;8.164;2023-04-23T02:14:07;3.85;;;2.40;;
16775;SDS011;8505;49.456;8.164;2023-04-23T02:16:36;3.05;;;2.50;;
16775;SDS011;8505;49.456;8.164;2023-04-23T02:19:03;3.47;;;2.33;;
16775;SDS011;8505;49.456;8.164;2023-04-23T02:21:31;2.97;;;2.50;;
16775;SDS011;8505;49.456;8.164;2023-04-23T02:23:59;3.53;;;2.50;;
16775;SDS011;8505;49.456;8.164;2023-04-23T02:26:27;4.32;;;2.70;;
16775;SDS011;8505;49.456;8.164;2023-04-23T02:28:55;3.28;;;2.50;;
16775;SDS011;8505;49.456;8.164;2023-04-23T02:31:24;3.27;;;2.60;;
16775;SDS011;8505;49.456;8.164;2023-04-23T02:33:51;4.22;;;2.83;;
16775;SDS011;8505;49.456;8.164;2023-04-23T02:36:19;2.60;;;2.40;;
16775;SDS011;8505;49.456;8.164;2023-04-23T02:38:47;2.88;;;2.50;;
16775;SDS011;8505;49.456;8.164;2023-04-23T02:41:16;4.18;;;2.50;;
16775;SDS011;8505;49.456;8.164;2023-04-23T02:43:44;3.70;;;2.45;;
16775;SDS011;8505;49.456;8.164;2023-04-23T02:46:12;3.30;;;2.40;;
16775;SDS011;8505;49.456;8.164;2023-04-23T02:48:41;3.28;;;2.20;;
16775;SDS011;8505;49.456;8.164;2023-04-23T02:51:10;4.88;;;2.67;;
16775;SDS011;8505;49.456;8.164;2023-04-23T02:53:39;3.70;;;2.28;;
16775;SDS011;8505;49.456;8.164;2023-04-23T02:56:06;3.63;;;2.38;;
16775;SDS011;8505;49.456;8.164;2023-04-23T02:58:34;3.38;;;2.28;;
16775;SDS011;8505;49.456;8.164;2023-04-23T03:01:02;2.57;;;2.10;;
16775;SDS011;8505;49.456;8.164;2023-04-23T03:03:31;3.75;;;2.30;;
16775;SDS011;8505;49.456;8.164;2023-04-23T03:06:02;2.65;;;2.10;;
16775;SDS011;8505;49.456;8.164;2023-04-23T03:08:31;2.92;;;2.00;;
16775;SDS011;8505;49.456;8.164;2023-04-23T03:10:59;2.75;;;1.90;;
16775;SDS011;8505;49.456;8.164;2023-04-23T03:13:27;2.35;;;2.10;;
16775;SDS011;8505;49.456;8.164;2023-04-23T03:15:55;2.75;;;2.05;;
16775;SDS011;8505;49.456;8.164;2023-04-23T03:18:23;3.35;;;2.10;;
16775;SDS011;8505;49.456;8.164;2023-04-23T03:20:51;3.03;;;2.13;;
16775;SDS011;8505;49.456;8.164;2023-04-23T03:23:20;2.45;;;2.10;;
16775;SDS011;8505;49.456;8.164;2023-04-23T03:25:47;3.00;;;2.20;;
16775;SDS011;8505;49.456;8.164;2023-04-23T03:28:15;3.20;;;2.08;;
16775;SDS011;8505;49.456;8.164;2023-04-23T03:30:43;2.80;;;2.10;;
16775;SDS011;8505;49.456;8.164;2023-04-23T03:33:10;3.10;;;2.10;;
16775;SDS011;8505;49.456;8.164;2023-04-23T03:35:38;3.10;;;1.92;;
16775;SDS011;8505;49.456;8.164;2023-04-23T03:38:06;2.97;;;2.00;;
16775;SDS011;8505;49.456;8.164;2023-04-23T03:40:35;3.30;;;1.90;;
16775;SDS011;8505;49.456;8.164;2023-04-23T03:43:03;2.50;;;2.00;;
16775;SDS011;8505;49.456;8.164;2023-04-23T03:45:31;2.97;;;2.00;;
16775;SDS011;8505;49.456;8.164;2023-04-23T03:47:58;2.90;;;2.10;;
16775;SDS011;8505;49.456;8.164;2023-04-23T03:50:26;2.92;;;1.90;;
16775;SDS011;8505;49.456;8.164;2023-04-23T03:52:54;2.20;;;2.00;;
16775;SDS011;8505;49.456;8.164;2023-04-23T03:55:22;2.53;;;2.10;;
16775;SDS011;8505;49.456;8.164;2023-04-23T03:57:51;2.45;;;2.10;;
16775;SDS011;8505;49.456;8.164;2023-04-23T04:00:19;2.35;;;2.10;;
16775;SDS011;8505;49.456;8.164;2023-04-23T04:02:47;3.67;;;2.23;;
16775;SDS011;8505;49.456;8.164;2023-04-23T04:05:15;2.53;;;2.08;;
16775;SDS011;8505;49.456;8.164;2023-04-23T04:07:43;2.72;;;2.05;;
16775;SDS011;8505;49.456;8.164;2023-04-23T04:10:10;2.75;;;2.20;;
16775;SDS011;8505;49.456;8.164;2023-04-23T04:12:38;3.80;;;1.95;;
16775;SDS011;8505;49.456;8.164;2023-04-23T04:15:09;2.45;;;2.03;;
16775;SDS011;8505;49.456;8.164;2023-04-23T04:17:37;2.97;;;1.95;;
16775;SDS011;8505;49.456;8.164;2023-04-23T04:20:05;4.13;;;2.20;;
16775;SDS011;8505;49.456;8.164;2023-04-23T04:22:35;2.75;;;2.00;;
16775;SDS011;8505;49.456;8.164;2023-04-23T04:25:03;3.67;;;2.10;;
16775;SDS011;8505;49.456;8.164;2023-04-23T04:27:32;2.30;;;2.00;;
16775;SDS011;8505;49.456;8.164;2023-04-23T04:30:00;3.70;;;1.90;;
16775;SDS011;8505;49.456;8.164;2023-04-23T04:32:29;1.92;;;1.63;;
16775;SDS011;8505;49.456;8.164;2023-04-23T04:34:57;2.45;;;1.67;;
16775;SDS011;8505;49.456;8.164;2023-04-23T04:37:24;2.03;;;1.80;;
16775;SDS011;8505;49.456;8.164;2023-04-23T04:39:53;4.10;;;1.80;;
16775;SDS011;8505;49.456;8.164;2023-04-23T04:42:20;2.75;;;1.80;;
16775;SDS011;8505;49.456;8.164;2023-04-23T04:44:48;3.60;;;2.08;;
16775;SDS011;8505;49.456;8.164;2023-04-23T04:47:16;3.00;;;2.10;;
16775;SDS011;8505;49.456;8.164;2023-04-23T04:49:45;3.58;;;2.20;;
16775;SDS011;8505;49.456;8.164;2023-04-23T04:52:14;3.30;;;2.10;;
16775;SDS011;8505;49.456;8.164;2023-04-23T04:54:42;4.03;;;2.50;;
16775;SDS011;8505;49.456;8.164;2023-04-23T04:57:10;3.80;;;2.40;;
16775;SDS011;8505;49.456;8.164;2023-04-23T04:59:37;3.00;;;2.40;;
16775;SDS011;8505;49.456;8.164;2023-04-23T05:02:05;5.47;;;2.42;;
16775;SDS011;8505;49.456;8.164;2023-04-23T05:04:33;3.25;;;2.42;;
16775;SDS011;8505;49.456;8.164;2023-04-23T05:07:02;4.60;;;2.60;;
16775;SDS011;8505;49.456;8.164;2023-04-23T05:09:30;3.60;;;2.33;;
16775;SDS011;8505;49.456;8.164;2023-04-23T05:11:58;2.92;;;2.30;;
16775;SDS011;8505;49.456;8.164;2023-04-23T05:14:26;4.05;;;2.63;;
16775;SDS011;8505;49.456;8.164;2023-04-23T05:16:55;3.45;;;2.63;;
16775;SDS011;8505;49.456;8.164;2023-04-23T05:19:23;4.07;;;2.65;;
16775;SDS011;8505;49.456;8.164;2023-04-23T05:24:48;3.78;;;2.50;;
16775;SDS011;8505;49.456;8.164;2023-04-23T05:27:16;3.33;;;2.33;;
16775;SDS011;8505;49.456;8.164;2023-04-23T05:29:44;2.63;;;2.33;;
16775;SDS011;8505;49.456;8.164;2023-04-23T05:32:12;3.10;;;2.42;;
16775;SDS011;8505;49.456;8.164;2023-04-23T05:34:40;2.80;;;2.30;;
16775;SDS011;8505;49.456;8.164;2023-04-23T05:37:08;3.05;;;2.47;;
16775;SDS011;8505;49.456;8.164;2023-04-23T05:39:37;3.25;;;2.33;;
16775;SDS011;8505;49.456;8.164;2023-04-23T05:42:05;3.60;;;2.40;;
16775;SDS011;8505;49.456;8.164;2023-04-23T05:44:33;6.15;;;4.10;;
16775;SDS011;8505;49.456;8.164;2023-04-23T05:47:00;5.68;;;4.22;;
16775;SDS011;8505;49.456;8.164;2023-04-23T05:49:28;3.55;;;2.30;;
16775;SDS011;8505;49.456;8.164;2023-04-23T05:51:56;4.10;;;2.30;;
16775;SDS011;8505;49.456;8.164;2023-04-23T05:54:24;3.35;;;2.10;;
16775;SDS011;8505;49.456;8.164;2023-04-23T05:56:53;3.45;;;2.30;;
16775;SDS011;8505;49.456;8.164;2023-04-23T05:59:21;3.58;;;2.50;;
16775;SDS011;8505;49.456;8.164;2023-04-23T06:01:49;3.40;;;2.33;;
16775;SDS011;8505;49.456;8.164;2023-04-23T06:04:17;4.30;;;2.40;;
16775;SDS011;8505;49.456;8.164;2023-04-23T06:06:46;4.03;;;2.28;;
16775;SDS011;8505;49.456;8.164;2023-04-23T06:09:14;3.38;;;2.40;;
16775;SDS011;8505;49.456;8.164;2023-04-23T06:11:41;2.63;;;2.10;;
16775;SDS011;8505;49.456;8.164;2023-04-23T06:14:11;3.65;;;2.20;;
16775;SDS011;8505;49.456;8.164;2023-04-23T06:16:38;2.08;;;1.77;;
16775;SDS011;8505;49.456;8.164;2023-04-23T06:19:06;3.20;;;1.90;;
16775;SDS011;8505;49.456;8.164;2023-04-23T06:21:34;3.70;;;1.90;;
16775;SDS011;8505;49.456;8.164;2023-04-23T06:24:04;2.60;;;2.08;;
16775;SDS011;8505;49.456;8.164;2023-04-23T06:26:32;4.18;;;1.90;;
16775;SDS011;8505;49.456;8.164;2023-04-23T06:29:00;3.67;;;1.90;;
16775;SDS011;8505;49.456;8.164;2023-04-23T06:31:29;3.22;;;2.20;;
16775;SDS011;8505;49.456;8.164;2023-04-23T06:33:57;2.67;;;2.05;;
16775;SDS011;8505;49.456;8.164;2023-04-23T06:36:25;2.58;;;2.10;;
16775;SDS011;8505;49.456;8.164;2023-04-23T06:38:52;4.25;;;2.03;;
16775;SDS011;8505;49.456;8.164;2023-04-23T06:41:20;3.88;;;2.25;;
16775;SDS011;8505;49.456;8.164;2023-04-23T06:43:48;5.13;;;2.30;;
16775;SDS011;8505;49.456;8.164;2023-04-23T06:46:15;3.53;;;2.30;;
16775;SDS011;8505;49.456;8.164;2023-04-23T06:48:44;4.32;;;2.50;;
16775;SDS011;8505;49.456;8.164;2023-04-23T06:51:12;3.33;;;2.00;;
16775;SDS011;8505;49.456;8.164;2023-04-23T06:53:41;3.10;;;2.07;;
16775;SDS011;8505;49.456;8.164;2023-04-23T06:56:08;3.63;;;2.00;;
16775;SDS011;8505;49.456;8.164;2023-04-23T06:58:36;3.80;;;2.27;;
16775;SDS011;8505;49.456;8.164;2023-04-23T07:01:04;2.80;;;2.10;;
16775;SDS011;8505;49.456;8.164;2023-04-23T07:03:32;4.07;;;2.10;;
16775;SDS011;8505;49.456;8.164;2023-04-23T07:06:03;3.53;;;1.90;;
16775;SDS011;8505;49.456;8.164;2023-04-23T07:08:30;2.58;;;1.90;;
16775;SDS011;8505;49.456;8.164;2023-04-23T07:10:58;3.25;;;2.00;;
16775;SDS011;8505;49.456;8.164;2023-04-23T07:13:26;3.30;;;2.00;;
16775;SDS011;8505;49.456;8.164;2023-04-23T07:15:54;3.15;;;2.17;;
16775;SDS011;8505;49.456;8.164;2023-04-23T07:18:22;4.15;;;2.05;;
16775;SDS011;8505;49.456;8.164;2023-04-23T07:20:50;3.10;;;2.03;;
16775;SDS011;8505;49.456;8.164;2023-04-23T07:23:19;2.95;;;1.98;;
16775;SDS011;8505;49.456;8.164;2023-04-23T07:25:46;3.67;;;2.00;;
16775;SDS011;8505;49.456;8.164;2023-04-23T07:28:14;4.13;;;1.98;;
16775;SDS011;8505;49.456;8.164;2023-04-23T07:30:42;3.78;;;2.05;;
16775;SDS011;8505;49.456;8.164;2023-04-23T07:33:10;2.67;;;1.83;;
16775;SDS011;8505;49.456;8.164;2023-04-23T07:35:38;2.65;;;1.95;;
16775;SDS011;8505;49.456;8.164;2023-04-23T07:38:06;4.03;;;1.80;;
16775;SDS011;8505;49.456;8.164;2023-04-23T07:40:35;3.00;;;1.70;;
16775;SDS011;8505;49.456;8.164;2023-04-23T07:43:03;3.55;;;1.85;;
16775;SDS011;8505;49.456;8.164;2023-04-23T07:45:30;3.13;;;2.05;;
16775;SDS011;8505;49.456;8.164;2023-04-23T07:47:58;3.50;;;1.85;;
16775;SDS011;8505;49.456;8.164;2023-04-23T07:50:28;2.42;;;1.80;;
16775;SDS011;8505;49.456;8.164;2023-04-23T07:52:56;5.10;;;1.98;;
16775;SDS011;8505;49.456;8.164;2023-04-23T07:55:23;3.40;;;1.70;;
16775;SDS011;8505;49.456;8.164;2023-04-23T07:57:52;3.60;;;1.98;;
16775;SDS011;8505;49.456;8.164;2023-04-23T08:00:20;3.30;;;1.80;;
16775;SDS011;8505;49.456;8.164;2023-04-23T08:02:48;3.03;;;1.90;;
16775;SDS011;8505;49.456;8.164;2023-04-23T08:05:17;3.67;;;1.85;;
16775;SDS011;8505;49.456;8.164;2023-04-23T08:07:44;3.05;;;1.73;;
16775;SDS011;8505;49.456;8.164;2023-04-23T08:10:12;3.58;;;1.70;;
16775;SDS011;8505;49.456;8.164;2023-04-23T08:12:40;3.95;;;1.75;;
16775;SDS011;8505;49.456;8.164;2023-04-23T08:15:10;3.22;;;1.58;;
16775;SDS011;8505;49.456;8.164;2023-04-23T08:17:38;3.45;;;1.77;;
16775;SDS011;8505;49.456;8.164;2023-04-23T08:20:06;2.67;;;1.70;;
16775;SDS011;8505;49.456;8.164;2023-04-23T08:22:35;3.25;;;1.70;;
16775;SDS011;8505;49.456;8.164;2023-04-23T08:25:03;3.25;;;1.70;;
16775;SDS011;8505;49.456;8.164;2023-04-23T08:27:31;4.07;;;1.92;;
16775;SDS011;8505;49.456;8.164;2023-04-23T08:29:59;3.53;;;1.65;;
16775;SDS011;8505;49.456;8.164;2023-04-23T08:32:28;2.90;;;1.70;;
16775;SDS011;8505;49.456;8.164;2023-04-23T08:34:56;3.33;;;1.60;;
16775;SDS011;8505;49.456;8.164;2023-04-23T08:37:25;2.85;;;2.10;;
16775;SDS011;8505;49.456;8.164;2023-04-23T08:39:56;2.55;;;1.70;;
16775;SDS011;8505;49.456;8.164;2023-04-23T08:42:26;2.30;;;1.50;;
16775;SDS011;8505;49.456;8.164;2023-04-23T08:45:02;3.40;;;1.73;;
16775;SDS011;8505;49.456;8.164;2023-04-23T08:47:33;2.20;;;1.48;;
16775;SDS011;8505;49.456;8.164;2023-04-23T08:50:02;2.72;;;1.70;;
16775;SDS011;8505;49.456;8.164;2023-04-23T08:52:32;5.38;;;1.70;;
16775;SDS011;8505;49.456;8.164;2023-04-23T08:55:01;2.60;;;1.60;;
16775;SDS011;8505;49.456;8.164;2023-04-23T08:57:36;3.30;;;1.75;;
16775;SDS011;8505;49.456;8.164;2023-04-23T09:00:07;2.95;;;2.00;;
16775;SDS011;8505;49.456;8.164;2023-04-23T09:02:39;3.65;;;1.80;;
16775;SDS011;8505;49.456;8.164;2023-04-23T09:05:08;4.85;;;1.90;;
16775;SDS011;8505;49.456;8.164;2023-04-23T09:07:36;3.38;;;1.80;;
16775;SDS011;8505;49.456;8.164;2023-04-23T09:10:05;5.07;;;2.13;;
16775;SDS011;8505;49.456;8.164;2023-04-23T09:12:34;4.78;;;2.03;;
16775;SDS011;8505;49.456;8.164;2023-04-23T09:15:02;3.60;;;2.45;;
16775;SDS011;8505;49.456;8.164;2023-04-23T09:17:37;3.00;;;2.00;;
16775;SDS011;8505;49.456;8.164;2023-04-23T09:20:07;3.67;;;2.17;;
16775;SDS011;8505;49.456;8.164;2023-04-23T09:22:39;4.35;;;2.00;;
16775;SDS011;8505;49.456;8.164;2023-04-23T09:25:13;3.65;;;2.00;;
16775;SDS011;8505;49.456;8.164;2023-04-23T09:27:42;4.30;;;2.53;;
16775;SDS011;8505;49.456;8.164;2023-04-23T09:30:11;3.75;;;2.45;;
16775;SDS011;8505;49.456;8.164;2023-04-23T09:32:42;5.50;;;2.17;;
16775;SDS011;8505;49.456;8.164;2023-04-23T09:35:12;4.43;;;1.95;;
16775;SDS011;8505;49.456;8.164;2023-04-23T09:37:41;3.92;;;1.92;;
16775;SDS011;8505;49.456;8.164;2023-04-23T09:40:14;4.10;;;2.20;;
16775;SDS011;8505;49.456;8.164;2023-04-23T09:42:46;2.55;;;1.60;;
16775;SDS011;8505;49.456;8.164;2023-04-23T09:45:16;3.10;;;1.70;;
16775;SDS011;8505;49.456;8.164;2023-04-23T09:47:49;3.20;;;1.80;;
16775;SDS011;8505;49.456;8.164;2023-04-23T09:50:18;4.05;;;1.65;;
16775;SDS011;8505;49.456;8.164;2023-04-23T09:52:52;3.55;;;1.58;;
16775;SDS011;8505;49.456;8.164;2023-04-23T09:55:26;2.70;;;1.52;;
16775;SDS011;8505;49.456;8.164;2023-04-23T09:57:56;2.97;;;1.50;;
16775;SDS011;8505;49.456;8.164;2023-04-23T10:00:24;2.60;;;1.52;;
16775;SDS011;8505;49.456;8.164;2023-04-23T10:02:59;3.58;;;1.90;;
16775;SDS011;8505;49.456;8.164;2023-04-23T10:05:37;2.83;;;1.75;;
16775;SDS011;8505;49.456;8.164;2023-04-23T10:08:09;2.08;;;1.58;;
16775;SDS011;8505;49.456;8.164;2023-04-23T10:10:39;3.13;;;1.40;;
16775;SDS011;8505;49.456;8.164;2023-04-23T10:13:25;2.63;;;1.45;;
16775;SDS011;8505;49.456;8.164;2023-04-23T10:15:53;3.17;;;1.60;;
16775;SDS011;8505;49.456;8.164;2023-04-23T10:18:40;4.07;;;1.70;;
16775;SDS011;8505;49.456;8.164;2023-04-23T10:21:09;2.83;;;1.60;;
16775;SDS011;8505;49.456;8.164;2023-04-23T10:23:40;4.38;;;2.10;;
16775;SDS011;8505;49.456;8.164;2023-04-23T10:26:10;3.25;;;2.00;;
16775;SDS011;8505;49.456;8.164;2023-04-23T10:28:42;3.67;;;1.75;;
16775;SDS011;8505;49.456;8.164;2023-04-23T10:31:14;3.90;;;2.10;;
16775;SDS011;8505;49.456;8.164;2023-04-23T10:33:43;3.13;;;1.92;;
16775;SDS011;8505;49.456;8.164;2023-04-23T10:36:23;3.42;;;1.90;;
16775;SDS011;8505;49.456;8.164;2023-04-23T10:38:53;3.15;;;2.05;;
16775;SDS011;8505;49.456;8.164;2023-04-23T10:41:28;3.97;;;1.90;;
16775;SDS011;8505;49.456;8.164;2023-04-23T10:44:01;3.00;;;1.80;;
16775;SDS011;8505;49.456;8.164;2023-04-23T10:46:30;3.35;;;1.98;;
16775;SDS011;8505;49.456;8.164;2023-04-23T10:49:09;3.40;;;1.90;;
16775;SDS011;8505;49.456;8.164;2023-04-23T10:51:40;4.07;;;2.43;;
16775;SDS011;8505;49.456;8.164;2023-04-23T10:54:29;3.60;;;2.20;;
16775;SDS011;8505;49.456;8.164;2023-04-23T10:56:58;3.05;;;2.08;;
16775;SDS011;8505;49.456;8.164;2023-04-23T10:59:28;4.78;;;2.20;;
16775;SDS011;8505;49.456;8.164;2023-04-23T11:01:58;4.07;;;2.00;;
16775;SDS011;8505;49.456;8.164;2023-04-23T11:04:34;2.63;;;1.90;;
16775;SDS011;8505;49.456;8.164;2023-04-23T11:07:04;4.73;;;2.07;;
16775;SDS011;8505;49.456;8.164;2023-04-23T11:09:36;3.03;;;1.90;;
16775;SDS011;8505;49.456;8.164;2023-04-23T11:12:07;4.77;;;2.07;;
16775;SDS011;8505;49.456;8.164;2023-04-23T11:14:41;4.03;;;1.90;;
16775;SDS011;8505;49.456;8.164;2023-04-23T11:17:13;2.20;;;1.48;;
16775;SDS011;8505;49.456;8.164;2023-04-23T11:20:05;3.38;;;1.80;;
16775;SDS011;8505;49.456;8.164;2023-04-23T11:22:36;4.00;;;1.90;;
16775;SDS011;8505;49.456;8.164;2023-04-23T11:25:07;3.38;;;2.10;;
16775;SDS011;8505;49.456;8.164;2023-04-23T11:27:37;4.13;;;2.25;;
16775;SDS011;8505;49.456;8.164;2023-04-23T11:30:09;4.32;;;2.80;;
16775;SDS011;8505;49.456;8.164;2023-04-23T11:32:38;6.25;;;2.30;;
16775;SDS011;8505;49.456;8.164;2023-04-23T11:35:08;3.92;;;1.90;;
16775;SDS011;8505;49.456;8.164;2023-04-23T11:37:39;3.38;;;1.90;;
16775;SDS011;8505;49.456;8.164;2023-04-23T11:40:09;5.47;;;2.60;;
16775;SDS011;8505;49.456;8.164;2023-04-23T11:42:42;4.15;;;2.00;;
16775;SDS011;8505;49.456;8.164;2023-04-23T11:45:18;3.67;;;2.00;;
16775;SDS011;8505;49.456;8.164;2023-04-23T11:47:48;2.63;;;1.67;;
16775;SDS011;8505;49.456;8.164;2023-04-23T11:50:21;2.80;;;1.75;;
16775;SDS011;8505;49.456;8.164;2023-04-23T11:52:49;3.92;;;2.10;;
16775;SDS011;8505;49.456;8.164;2023-04-23T11:55:18;3.60;;;1.90;;
16775;SDS011;8505;49.456;8.164;2023-04-23T11:57:47;3.80;;;1.90;;
16775;SDS011;8505;49.456;8.164;2023-04-23T12:00:16;3.40;;;2.00;;
16775;SDS011;8505;49.456;8.164;2023-04-23T12:02:49;3.97;;;1.73;;
16775;SDS011;8505;49.456;8.164;2023-04-23T12:05:20;4.20;;;1.60;;
16775;SDS011;8505;49.456;8.164;2023-04-23T12:07:49;2.97;;;1.67;;
16775;SDS011;8505;49.456;8.164;2023-04-23T12:10:18;3.67;;;2.33;;
16775;SDS011;8505;49.456;8.164;2023-04-23T12:12:50;3.05;;;1.50;;
16775;SDS011;8505;49.456;8.164;2023-04-23T12:15:18;4.23;;;1.57;;
16775;SDS011;8505;49.456;8.164;2023-04-23T12:17:47;2.72;;;1.50;;
16775;SDS011;8505;49.456;8.164;2023-04-23T12:20:17;2.70;;;1.40;;
16775;SDS011;8505;49.456;8.164;2023-04-23T12:22:47;3.00;;;1.60;;
16775;SDS011;8505;49.456;8.164;2023-04-23T12:25:15;3.25;;;1.60;;
16775;SDS011;8505;49.456;8.164;2023-04-23T12:27:43;4.00;;;1.80;;
16775;SDS011;8505;49.456;8.164;2023-04-23T12:30:11;4.83;;;1.90;;
16775;SDS011;8505;49.456;8.164;2023-04-23T12:32:39;2.40;;;1.27;;
16775;SDS011;8505;49.456;8.164;2023-04-23T12:35:07;2.88;;;1.50;;
16775;SDS011;8505;49.456;8.164;2023-04-23T12:37:36;1.98;;;1.48;;
16775;SDS011;8505;49.456;8.164;2023-04-23T12:40:06;3.40;;;1.80;;
16775;SDS011;8505;49.456;8.164;2023-04-23T12:42:35;3.13;;;1.42;;
16775;SDS011;8505;49.456;8.164;2023-04-23T12:45:06;1.90;;;1.25;;
16775;SDS011;8505;49.456;8.164;2023-04-23T12:47:36;2.28;;;1.40;;
16775;SDS011;8505;49.456;8.164;2023-04-23T12:50:04;1.50;;;1.13;;
16775;SDS011;8505;49.456;8.164;2023-04-23T12:52:33;2.25;;;1.20;;
16775;SDS011;8505;49.456;8.164;2023-04-23T12:55:00;5.03;;;1.30;;
16775;SDS011;8505;49.456;8.164;2023-04-23T12:57:31;1.65;;;1.10;;
16775;SDS011;8505;49.456;8.164;2023-04-23T12:59:59;3.45;;;1.50;;
16775;SDS011;8505;49.456;8.164;2023-04-23T13:02:27;2.63;;;1.30;;
16775;SDS011;8505;49.456;8.164;2023-04-23T13:04:55;2.97;;;1.67;;
16775;SDS011;8505;49.456;8.164;2023-04-23T13:07:26;2.05;;;1.20;;
16775;SDS011;8505;49.456;8.164;2023-04-23T13:09:54;2.55;;;1.15;;
16775;SDS011;8505;49.456;8.164;2023-04-23T13:12:22;2.25;;;1.20;;
16775;SDS011;8505;49.456;8.164;2023-04-23T13:14:51;2.38;;;1.48;;
16775;SDS011;8505;49.456;8.164;2023-04-23T13:17:19;2.42;;;1.33;;
16775;SDS011;8505;49.456;8.164;2023-04-23T13:19:48;2.65;;;1.58;;
16775;SDS011;8505;49.456;8.164;2023-04-23T13:22:16;2.60;;;1.05;;
16775;SDS011;8505;49.456;8.164;2023-04-23T13:24:43;3.30;;;1.10;;
16775;SDS011;8505;49.456;8.164;2023-04-23T13:27:11;1.80;;;0.90;;
16775;SDS011;8505;49.456;8.164;2023-04-23T13:29:39;2.33;;;1.00;;
16775;SDS011;8505;49.456;8.164;2023-04-23T13:32:08;1.50;;;0.80;;
16775;SDS011;8505;49.456;8.164;2023-04-23T13:34:36;1.83;;;0.80;;
16775;SDS011;8505;49.456;8.164;2023-04-23T13:37:04;1.67;;;0.82;;
16775;SDS011;8505;49.456;8.164;2023-04-23T13:39:34;1.08;;;0.80;;
16775;SDS011;8505;49.456;8.164;2023-04-23T13:42:05;1.63;;;0.80;;
16775;SDS011;8505;49.456;8.164;2023-04-23T13:44:35;1.02;;;0.80;;
16775;SDS011;8505;49.456;8.164;2023-04-23T13:47:03;1.83;;;0.90;;
16775;SDS011;8505;49.456;8.164;2023-04-23T13:49:32;1.15;;;0.82;;
16775;SDS011;8505;49.456;8.164;2023-04-23T13:52:01;3.05;;;1.88;;
16775;SDS011;8505;49.456;8.164;2023-04-23T13:54:32;3.25;;;1.20;;
16775;SDS011;8505;49.456;8.164;2023-04-23T13:57:01;1.80;;;0.87;;
16775;SDS011;8505;49.456;8.164;2023-04-23T13:59:28;2.03;;;1.02;;
16775;SDS011;8505;49.456;8.164;2023-04-23T14:01:56;1.90;;;0.80;;
16775;SDS011;8505;49.456;8.164;2023-04-23T14:04:24;1.60;;;0.80;;
16775;SDS011;8505;49.456;8.164;2023-04-23T14:06:53;1.75;;;0.80;;
16775;SDS011;8505;49.456;8.164;2023-04-23T14:09:21;1.93;;;0.80;;
16775;SDS011;8505;49.456;8.164;2023-04-23T14:11:49;1.50;;;0.85;;
16775;SDS011;8505;49.456;8.164;2023-04-23T14:14:16;1.27;;;0.80;;
16775;SDS011;8505;49.456;8.164;2023-04-23T14:16:44;1.75;;;0.88;;
16775;SDS011;8505;49.456;8.164;2023-04-23T14:19:12;1.80;;;1.00;;
16775;SDS011;8505;49.456;8.164;2023-04-23T14:21:39;2.50;;;0.90;;
16775;SDS011;8505;49.456;8.164;2023-04-23T14:24:15;1.77;;;0.80;;
16775;SDS011;8505;49.456;8.164;2023-04-23T14:26:44;1.25;;;0.65;;
16775;SDS011;8505;49.456;8.164;2023-04-23T14:29:22;1.27;;;0.80;;
16775;SDS011;8505;49.456;8.164;2023-04-23T14:31:51;1.60;;;0.80;;
16775;SDS011;8505;49.456;8.164;2023-04-23T14:34:19;3.25;;;0.90;;
16775;SDS011;8505;49.456;8.164;2023-04-23T14:36:47;2.00;;;1.00;;
16775;SDS011;8505;49.456;8.164;2023-04-23T14:39:16;2.22;;;0.90;;
16775;SDS011;8505;49.456;8.164;2023-04-23T14:41:44;1.50;;;0.80;;
16775;SDS011;8505;49.456;8.164;2023-04-23T14:44:12;1.38;;;0.80;;
16775;SDS011;8505;49.456;8.164;2023-04-23T14:46:39;1.48;;;0.90;;
16775;SDS011;8505;49.456;8.164;2023-04-23T14:49:07;1.38;;;0.88;;
16775;SDS011;8505;49.456;8.164;2023-04-23T14:51:35;1.60;;;0.90;;
16775;SDS011;8505;49.456;8.164;2023-04-23T14:54:03;1.33;;;0.70;;
16775;SDS011;8505;49.456;8.164;2023-04-23T14:56:32;2.78;;;0.90;;
16775;SDS011;8505;49.456;8.164;2023-04-23T14:59:00;1.42;;;0.80;;
16775;SDS011;8505;49.456;8.164;2023-04-23T15:01:28;1.27;;;0.80;;
16775;SDS011;8505;49.456;8.164;2023-04-23T15:03:56;2.13;;;1.00;;
16775;SDS011;8505;49.456;8.164;2023-04-23T15:06:24;1.83;;;1.00;;
16775;SDS011;8505;49.456;8.164;2023-04-23T15:08:51;2.37;;;0.80;;
16775;SDS011;8505;49.456;8.164;2023-04-23T15:11:19;2.17;;;1.00;;
16775;SDS011;8505;49.456;8.164;2023-04-23T15:13:55;4.70;;;1.80;;
16775;SDS011;8505;49.456;8.164;2023-04-23T15:16:29;1.15;;;0.93;;
16775;SDS011;8505;49.456;8.164;2023-04-23T15:19:12;1.48;;;0.90;;